createdAt,value
2022-12-13T00:01:12.904Z,-1.50
2022-12-13T00:06:15.911Z,-1.60
2022-12-13T00:11:19.100Z,-1.50
2022-12-13T00:16:25.196Z,-1.50
2022-12-13T00:21:30.309Z,-1.60
2022-12-13T00:26:33.998Z,-1.50
2022-12-13T00:31:59.871Z,-1.50
2022-12-13T00:37:01.087Z,-1.60
2022-12-13T00:42:04.037Z,-1.60
2022-12-13T00:47:08.126Z,-1.60
2022-12-13T00:52:10.922Z,-1.60
2022-12-13T00:57:13.719Z,-1.80
2022-12-13T01:02:17.905Z,-1.90
2022-12-13T01:07:20.800Z,-1.80
2022-12-13T01:12:23.617Z,-1.70
2022-12-13T01:17:27.740Z,-1.80
2022-12-13T01:22:30.487Z,-1.80
2022-12-13T01:27:33.281Z,-1.80
2022-12-13T01:32:37.472Z,-1.70
2022-12-13T01:37:40.326Z,-1.50
2022-12-13T01:42:43.069Z,-1.70
2022-12-13T01:47:49.941Z,-1.60
2022-12-13T01:52:55.476Z,-1.70
2022-12-13T01:58:06.009Z,-1.70
2022-12-13T02:03:21.276Z,-1.80
2022-12-13T02:08:26.309Z,-1.80
2022-12-13T02:13:29.106Z,-1.70
2022-12-13T02:18:52.479Z,-1.70
2022-12-13T02:24:32.334Z,-1.70
2022-12-13T02:30:20.835Z,-1.60
2022-12-13T02:35:28.180Z,-1.60
2022-12-13T02:40:36.036Z,-1.60
2022-12-13T02:45:43.181Z,-1.50
2022-12-13T02:50:47.967Z,-1.70
2022-12-13T02:55:50.835Z,-1.80
2022-12-13T03:01:01.275Z,-1.90
2022-12-13T03:06:34.433Z,-2.00
2022-12-13T03:12:08.746Z,-1.90
2022-12-13T03:17:14.923Z,-1.90
2022-12-13T03:22:19.588Z,-1.80
2022-12-13T03:27:22.423Z,-1.80
2022-12-13T03:32:25.146Z,-1.90
2022-12-13T03:37:29.662Z,-1.80
2022-12-13T03:42:32.474Z,-2.00
2022-12-13T03:47:35.200Z,-2.00
2022-12-13T03:52:39.309Z,-2.10
2022-12-13T03:57:42.109Z,-2.00
2022-12-13T04:02:44.962Z,-2.00
2022-12-13T04:07:49.749Z,-2.10
2022-12-13T04:13:10.536Z,-2.40
2022-12-13T04:18:13.256Z,-2.70
2022-12-13T04:23:17.376Z,-3.10
2022-12-13T04:28:21.527Z,-3.20
2022-12-13T04:33:26.095Z,-3.00
2022-12-13T04:38:30.182Z,-3.10
2022-12-13T04:43:32.929Z,-3.40
2022-12-13T04:48:35.751Z,-3.60
2022-12-13T04:53:39.850Z,-3.90
2022-12-13T04:58:42.731Z,-3.90
2022-12-13T05:03:45.579Z,-3.90
2022-12-13T05:08:49.825Z,-3.90
2022-12-13T05:13:52.635Z,-3.30
2022-12-13T05:18:55.407Z,-3.40
2022-12-13T05:23:59.583Z,-3.40
2022-12-13T05:29:02.388Z,-3.40
2022-12-13T05:34:05.191Z,-3.80
2022-12-13T05:39:28.860Z,-4.00
2022-12-13T05:44:33.136Z,-4.30
2022-12-13T05:49:35.929Z,-4.80
2022-12-13T05:54:43.774Z,-4.90
2022-12-13T05:59:46.635Z,-5.00
2022-12-13T06:04:49.439Z,-4.80
2022-12-13T06:09:53.543Z,-4.80
2022-12-13T06:15:22.571Z,-5.10
2022-12-13T06:20:25.775Z,-5.30
2022-12-13T06:25:30.493Z,-5.10
2022-12-13T06:30:34.433Z,-5.10
2022-12-13T06:35:41.275Z,-5.00
2022-12-13T06:40:45.670Z,-5.30
2022-12-13T06:45:48.664Z,-5.30
2022-12-13T06:50:51.482Z,-5.60
2022-12-13T06:55:55.610Z,-6.00
2022-12-13T07:01:03.289Z,-5.80
2022-12-13T07:06:08.268Z,-5.40
2022-12-13T07:11:16.820Z,-5.50
2022-12-13T07:16:20.617Z,-5.70
2022-12-13T07:21:23.424Z,-5.90
2022-12-13T07:26:27.650Z,-5.80
2022-12-13T07:31:30.476Z,-4.80
2022-12-13T07:36:33.330Z,-3.10
2022-12-13T07:41:37.583Z,-1.40
2022-12-13T07:46:40.402Z,-2.20
2022-12-13T07:51:43.217Z,-3.20
2022-12-13T07:56:47.339Z,-3.80
2022-12-13T08:01:50.217Z,-4.00
2022-12-13T08:06:52.998Z,-4.00
2022-12-13T08:11:57.195Z,-4.10
2022-12-13T08:17:04.299Z,-4.00
2022-12-13T08:22:07.164Z,-4.00
2022-12-13T08:27:18.629Z,-4.00
2022-12-13T08:32:21.732Z,-3.80
2022-12-13T08:37:24.545Z,-3.30
2022-12-13T08:42:28.811Z,-2.50
2022-12-13T08:47:33.519Z,-2.00
2022-12-13T08:52:39.288Z,-2.20
2022-12-13T08:57:46.347Z,-2.20
2022-12-13T09:02:49.296Z,-2.10
2022-12-13T09:07:56.365Z,-2.40
2022-12-13T09:13:02.417Z,-0.60
2022-12-13T09:18:05.794Z,0.10
2022-12-13T09:23:21.596Z,4.30
2022-12-13T09:28:28.555Z,6.90
2022-12-13T09:33:31.536Z,10.50
2022-12-13T09:38:35.739Z,13.50
2022-12-13T09:43:43.057Z,17.40
2022-12-13T09:48:48.258Z,16.10
2022-12-13T09:53:53.658Z,17.50
2022-12-13T09:58:59.194Z,10.60
2022-12-13T10:04:02.557Z,10.20
2022-12-13T10:09:11.056Z,12.00
2022-12-13T10:14:20.074Z,14.70
2022-12-13T10:19:28.338Z,17.30
2022-12-13T10:24:50.649Z,17.50
2022-12-13T10:30:08.671Z,17.80
2022-12-13T10:35:24.191Z,17.20
2022-12-13T10:40:33.280Z,16.50
2022-12-13T10:45:37.974Z,15.90
2022-12-13T10:50:40.967Z,16.80
2022-12-13T10:55:43.776Z,17.60
2022-12-13T11:00:49.316Z,17.00
2022-12-13T11:06:04.477Z,20.00
2022-12-13T11:11:09.279Z,18.30
2022-12-13T11:16:23.671Z,18.40
2022-12-13T11:21:29.015Z,18.50
2022-12-13T11:26:34.396Z,16.10
2022-12-13T11:31:48.328Z,16.60
2022-12-13T11:36:54.733Z,19.30
2022-12-13T11:42:02.613Z,16.30
2022-12-13T11:47:11.987Z,17.20
2022-12-13T11:52:19.649Z,17.40
2022-12-13T11:57:34.273Z,19.30
2022-12-13T12:02:43.212Z,18.40
2022-12-13T12:08:30.725Z,16.20
2022-12-13T12:13:20.173Z,16.10
2022-12-13T12:18:24.587Z,17.00
2022-12-13T12:23:49.653Z,18.90
2022-12-13T12:29:12.254Z,20.00
2022-12-13T12:34:28.516Z,21.30
2022-12-13T12:39:44.100Z,20.20
2022-12-13T12:45:00.253Z,18.60
2022-12-13T12:50:26.068Z,18.10
2022-12-13T12:55:39.777Z,19.20
2022-12-13T13:00:50.526Z,18.80
2022-12-13T13:06:02.381Z,21.20
2022-12-13T13:11:24.754Z,21.30
2022-12-13T13:16:34.216Z,20.90
2022-12-13T13:21:48.390Z,20.60
2022-12-13T13:26:53.965Z,17.80
2022-12-13T13:32:01.892Z,10.80
2022-12-13T13:37:27.999Z,7.00
2022-12-13T13:42:31.665Z,4.90
2022-12-13T13:47:40.193Z,3.60
2022-12-13T13:52:58.727Z,2.70
2022-12-13T13:58:31.891Z,2.20
2022-12-13T14:04:10.950Z,2.00
2022-12-13T14:09:39.657Z,1.50
2022-12-13T14:15:20.716Z,1.20
2022-12-13T14:20:56.330Z,0.90
2022-12-13T14:26:24.661Z,0.80
2022-12-13T14:31:36.260Z,0.70
2022-12-13T14:36:39.125Z,0.20
2022-12-13T14:41:48.490Z,-0.10
2022-12-13T14:47:02.143Z,-0.20
2022-12-13T14:52:07.788Z,-0.50
2022-12-13T14:57:18.240Z,-0.70
2022-12-13T15:02:30.334Z,-0.90
2022-12-13T15:07:38.417Z,-1.10
2022-12-13T15:12:44.192Z,-1.30
2022-12-13T15:17:47.012Z,-1.40
2022-12-13T15:22:57.281Z,-1.60
2022-12-13T15:28:01.759Z,-1.80
2022-12-13T15:33:07.881Z,-2.10
2022-12-13T15:38:14.196Z,-2.30
2022-12-13T15:43:37.876Z,-2.40
2022-12-13T15:48:48.664Z,-2.30
2022-12-13T15:54:05.849Z,-2.50
2022-12-13T15:59:27.231Z,-2.60
2022-12-13T16:04:32.700Z,-2.50
2022-12-13T16:09:38.131Z,-2.80
2022-12-13T16:14:49.313Z,-2.90
2022-12-13T16:19:53.666Z,-3.30
2022-12-13T16:24:57.258Z,-3.40
2022-12-13T16:30:01.404Z,-3.60
2022-12-13T16:35:04.410Z,-3.60
2022-12-13T16:40:25.808Z,-3.60
2022-12-13T16:45:41.523Z,-3.50
2022-12-13T16:50:46.954Z,-3.50
2022-12-13T16:55:58.519Z,-3.70
2022-12-13T17:01:09.649Z,-3.70
2022-12-13T17:06:14.720Z,-3.90
2022-12-13T17:11:18.477Z,-4.00
2022-12-13T17:16:22.862Z,-3.90
2022-12-13T17:21:26.790Z,-3.90
2022-12-13T17:26:30.475Z,-3.90
2022-12-13T17:31:35.986Z,-4.20
2022-12-13T17:36:39.361Z,-4.40
2022-12-13T17:41:42.207Z,-4.50
2022-12-13T17:46:54.747Z,-4.50
2022-12-13T17:51:58.587Z,-4.60
2022-12-13T17:57:01.476Z,-4.80
2022-12-13T18:02:05.667Z,-4.90
2022-12-13T18:07:08.541Z,-4.90
2022-12-13T18:12:12.360Z,-5.00
2022-12-13T18:17:16.476Z,-5.20
2022-12-13T18:22:19.326Z,-5.20
2022-12-13T18:27:22.078Z,-5.40
2022-12-13T18:32:26.158Z,-5.60
2022-12-13T18:37:28.996Z,-5.60
2022-12-13T18:42:31.808Z,-5.70
2022-12-13T18:47:35.884Z,-5.60
2022-12-13T18:52:38.656Z,-5.60
2022-12-13T18:57:41.471Z,-5.70
2022-12-13T19:02:45.882Z,-5.90
2022-12-13T19:07:48.748Z,-6.20
2022-12-13T19:12:52.693Z,-6.20
2022-12-13T19:17:56.812Z,-6.40
2022-12-13T19:22:59.563Z,-6.40
2022-12-13T19:28:02.367Z,-6.30
2022-12-13T19:33:07.912Z,-6.20
2022-12-13T19:38:11.821Z,-6.50
2022-12-13T19:43:15.310Z,-7.00
2022-12-13T19:48:19.668Z,-7.20
2022-12-13T19:53:22.420Z,-6.90
2022-12-13T19:58:25.403Z,-6.60
2022-12-13T20:03:32.022Z,-6.80
2022-12-13T20:32:16.787Z,-6.70
2022-12-13T20:37:21.607Z,-6.90
2022-12-13T20:42:24.776Z,-7.10
2022-12-13T20:47:28.118Z,-6.90
2022-12-13T20:52:32.691Z,-7.00
2022-12-13T20:57:37.432Z,-7.10
2022-12-13T21:02:41.358Z,-7.00
2022-12-13T21:08:07.759Z,-7.20
2022-12-13T21:13:13.476Z,-7.10
2022-12-13T21:18:17.275Z,-7.30
2022-12-13T21:23:23.508Z,-7.20
2022-12-13T21:28:26.803Z,-7.40
2022-12-13T21:33:30.815Z,-7.50
2022-12-13T21:38:35.789Z,-7.40
2022-12-13T21:43:40.136Z,-7.20
2022-12-13T22:10:01.983Z,-7.10
2022-12-13T22:21:42.862Z,-7.60
2022-12-13T22:26:45.896Z,-7.30
2022-12-13T22:31:49.194Z,-7.20
2022-12-13T22:36:53.707Z,-7.30
2022-12-13T22:41:56.450Z,-7.50
2022-12-13T22:46:59.228Z,-7.50
2022-12-13T22:52:03.344Z,-7.50
2022-12-13T22:57:06.356Z,-7.30
2022-12-13T23:02:09.818Z,-7.20
2022-12-13T23:07:14.155Z,-6.50
2022-12-13T23:12:34.742Z,-5.90
2022-12-13T23:17:37.519Z,-5.30
2022-12-13T23:22:41.634Z,-4.90
2022-12-13T23:27:44.519Z,-4.60
2022-12-13T23:32:47.287Z,-4.40
2022-12-13T23:37:51.395Z,-4.30
2022-12-13T23:42:54.186Z,-4.20
2022-12-13T23:47:56.951Z,-4.10
2022-12-13T23:53:01.072Z,-4.00
2022-12-13T23:58:03.925Z,-4.00
